Time;durP1;ratioP1;P1;durP2;ratioP2;P2;SDS_P1;SDS_P2;PMS_P1;PMS_P2;Temp;Humidity;BMP_temperature;BMP_pressure;BME280_temperature;BME280_humidity;BME280_pressure;Samples;Min_cycle;Max_cycle;Signal;HPM_P1;HPM_P2
2023/04/28 00:00:46;;;;;;;;;0.25;0.25;;;;;23.24;40.46;100569.47;5073478;27;45513;-76
2023/04/28 00:03:12;;;;;;;;;0.75;0.25;;;;;23.24;40.57;100572.16;5060042;28;45367;-75
2023/04/28 00:05:37;;;;;;;;;1.00;1.00;;;;;23.27;40.49;100573.75;5060514;28;45789;-75
2023/04/28 00:08:02;;;;;;;;;0.75;0.25;;;;;23.23;40.03;100567.81;5059565;27;60737;-75
2023/04/28 00:10:30;;;;;;;;;0.25;0.25;;;;;23.23;40.35;100573.16;5077557;27;45501;-75
2023/04/28 00:12:55;;;;;;;;;0.00;0.00;;;;;23.26;40.30;100580.03;5078493;28;45724;-76
2023/04/28 00:15:21;;;;;;;;;0.00;0.00;;;;;23.26;40.63;100570.19;5075400;27;45352;-76
2023/04/28 00:17:46;;;;;;;;;0.00;0.00;;;;;23.25;40.21;100565.84;5073545;28;45839;-76
2023/04/28 00:20:14;;;;;;;;;0.75;0.25;;;;;23.25;40.09;100565.84;5054218;28;45533;-75
2023/04/28 00:22:40;;;;;;;;;1.00;1.00;;;;;23.27;40.19;100573.75;5077447;27;45474;-76
2023/04/28 00:25:06;;;;;;;;;0.25;0.00;;;;;23.25;39.97;100581.03;5073735;27;45547;-75
2023/04/28 00:27:32;;;;;;;;;0.25;0.25;;;;;23.26;40.18;100580.03;5061510;28;47209;-76
2023/04/28 00:29:58;;;;;;;;;0.25;0.25;;;;;23.25;39.93;100573.03;5077159;27;45518;-75
2023/04/28 00:32:23;;;;;;;;;0.75;0.00;;;;;23.24;40.23;100568.66;5086212;27;45453;-75
2023/04/28 00:34:49;;;;;;;;;0.25;0.25;;;;;23.24;40.00;100579.31;5072792;27;45547;-75
2023/04/28 00:37:14;;;;;;;;;0.00;0.00;;;;;23.22;40.11;100574.09;5075948;28;47312;-75
2023/04/28 00:39:40;;;;;;;;;0.25;0.25;;;;;23.23;39.92;100573.16;5075006;27;45373;-75
2023/04/28 00:42:08;;;;;;;;;0.25;0.25;;;;;23.26;39.97;100572.88;5077050;27;45537;-75
2023/04/28 00:44:33;;;;;;;;;0.75;0.75;;;;;23.26;40.42;100572.03;5073881;27;45552;-76
2023/04/28 00:46:59;;;;;;;;;2.00;0.00;;;;;23.26;40.17;100564.84;5075317;27;71800;-75
2023/04/28 00:49:25;;;;;;;;;0.25;0.25;;;;;23.22;40.51;100560.75;5072808;27;45381;-75
2023/04/28 00:51:50;;;;;;;;;0.25;0.25;;;;;23.23;40.12;100556.25;5076780;27;67065;-75
2023/04/28 00:54:16;;;;;;;;;0.00;0.00;;;;;23.24;40.17;100560.63;5067603;27;49629;-76
2023/04/28 00:56:42;;;;;;;;;1.00;1.00;;;;;23.26;40.02;100559.50;5073384;27;46558;-76
2023/04/28 00:59:07;;;;;;;;;0.00;0.00;;;;;23.26;40.37;100564.03;5078710;27;45651;-75
2023/04/28 01:01:34;;;;;;;;;0.00;0.00;;;;;23.24;40.23;100558.81;5079183;27;45486;-75
2023/04/28 01:03:59;;;;;;;;;0.00;0.00;;;;;23.26;40.40;100564.84;5077039;27;45493;-75
2023/04/28 01:06:25;;;;;;;;;0.00;0.00;;;;;23.26;39.98;100561.34;5058237;28;47118;-75
2023/04/28 01:08:51;;;;;;;;;0.00;0.00;;;;;23.24;40.36;100561.47;5072920;27;67794;-75
2023/04/28 01:11:16;;;;;;;;;0.00;0.00;;;;;23.25;40.35;100565.84;5076750;27;45464;-75
2023/04/28 01:13:47;;;;;;;;;1.00;0.00;;;;;23.22;39.83;100559.91;5055360;28;45471;-75
2023/04/28 01:16:13;;;;;;;;;0.25;0.25;;;;;23.27;40.18;100568.41;5076224;28;45539;-75
2023/04/28 01:18:42;;;;;;;;;0.00;0.00;;;;;23.23;40.25;100561.59;5074372;27;45413;-75
2023/04/28 01:21:07;;;;;;;;;1.00;0.00;;;;;23.27;40.15;100557.72;5057220;28;45419;-75
2023/04/28 01:23:33;;;;;;;;;0.00;0.00;;;;;23.25;40.29;100563.19;5073945;27;49284;-75
2023/04/28 01:25:58;;;;;;;;;0.00;0.00;;;;;23.26;40.43;100561.34;5073932;28;49984;-75
2023/04/28 01:28:23;;;;;;;;;0.00;0.00;;;;;23.24;40.28;100569.47;5071776;27;65757;-75
2023/04/28 01:30:49;;;;;;;;;0.25;0.00;;;;;23.23;39.89;100567.81;5057627;28;45722;-75
2023/04/28 01:33:14;;;;;;;;;0.25;0.25;;;;;23.24;40.09;100563.31;5048857;28;45480;-75
2023/04/28 01:35:40;;;;;;;;;0.25;0.25;;;;;23.24;39.84;100566.81;5070317;27;45565;-75
2023/04/28 01:38:05;;;;;;;;;0.00;0.00;;;;;23.25;39.94;100567.69;5077088;28;49067;-75
2023/04/28 01:40:30;;;;;;;;;1.00;1.00;;;;;23.24;39.75;100566.81;5075810;27;45511;-75
2023/04/28 01:42:56;;;;;;;;;0.00;0.00;;;;;23.23;40.16;100565.13;5058167;28;70822;-76
2023/04/28 01:45:21;;;;;;;;;0.00;0.00;;;;;23.25;40.08;100560.50;5085471;27;67853;-75
2023/04/28 01:47:46;;;;;;;;;0.00;0.00;;;;;23.26;40.05;100561.34;5054138;28;45637;-76
2023/04/28 01:50:12;;;;;;;;;0.00;0.00;;;;;23.23;39.77;100557.13;5076187;27;47574;-76
2023/04/28 01:52:37;;;;;;;;;0.00;0.00;;;;;23.21;39.93;100555.53;5056057;28;45553;-75
2023/04/28 01:55:03;;;;;;;;;0.00;0.00;;;;;23.25;39.94;100557.00;5073827;27;50181;-75
2023/04/28 01:57:28;;;;;;;;;2.00;0.75;;;;;23.23;40.09;100559.81;5069022;27;45382;-75
2023/04/28 01:59:54;;;;;;;;;0.00;0.00;;;;;23.23;39.77;100558.94;5076681;27;45466;-75
2023/04/28 02:02:19;;;;;;;;;0.00;0.00;;;;;23.25;39.85;100551.66;5059673;28;45872;-76
2023/04/28 02:04:45;;;;;;;;;0.00;0.00;;;;;23.23;40.11;100557.13;5073377;28;47185;-75
2023/04/28 02:07:10;;;;;;;;;0.00;0.00;;;;;23.25;39.97;100554.34;5058207;28;63172;-75
2023/04/28 02:09:36;;;;;;;;;0.00;0.00;;;;;23.23;40.14;100553.59;5077627;27;45535;-75
2023/04/28 02:12:01;;;;;;;;;0.00;0.00;;;;;23.22;40.25;100552.75;5058482;28;45534;-76
2023/04/28 02:14:31;;;;;;;;;0.00;0.00;;;;;23.24;40.12;100549.97;5073760;28;46167;-75
2023/04/28 02:16:57;;;;;;;;;1.00;0.25;;;;;23.19;39.91;100547.66;5076939;27;45268;-75
2023/04/28 02:19:22;;;;;;;;;1.00;1.00;;;;;23.25;40.33;100560.50;5076973;27;45546;-76
2023/04/28 02:21:48;;;;;;;;;0.00;0.00;;;;;23.27;40.20;100557.72;5061221;28;58039;-75
2023/04/28 02:24:13;;;;;;;;;0.00;0.00;;;;;23.24;40.34;100555.28;5078263;27;46055;-76
2023/04/28 02:26:38;;;;;;;;;0.00;0.00;;;;;23.25;40.20;100554.34;5078895;27;69806;-76
2023/04/28 02:29:04;;;;;;;;;0.00;0.00;;;;;23.25;40.00;100551.66;5080194;27;63995;-76
2023/04/28 02:31:29;;;;;;;;;0.00;0.00;;;;;23.25;40.04;100559.69;5076258;27;46051;-75
2023/04/28 02:33:55;;;;;;;;;0.50;0.00;;;;;23.25;40.12;100560.50;5076647;27;64913;-75
2023/04/28 02:36:20;;;;;;;;;0.00;0.00;;;;;23.26;40.33;100569.38;5078779;27;46164;-75
2023/04/28 02:38:46;;;;;;;;;0.00;0.00;;;;;23.27;40.26;100573.75;5077360;27;45528;-75
2023/04/28 02:41:12;;;;;;;;;0.00;0.00;;;;;23.28;40.36;100583.44;5079152;27;45290;-75
2023/04/28 02:43:37;;;;;;;;;0.75;0.00;;;;;23.28;40.06;100580.75;5070067;28;45566;-75
2023/04/28 02:46:03;;;;;;;;;0.00;0.00;;;;;23.26;40.01;100574.69;5074888;28;45190;-76
2023/04/28 02:48:28;;;;;;;;;0.00;0.00;;;;;23.27;40.37;100574.56;5077123;27;45406;-76
2023/04/28 02:50:54;;;;;;;;;0.00;0.00;;;;;23.27;40.19;100563.91;5081357;27;61287;-76
2023/04/28 02:53:20;;;;;;;;;0.00;0.00;;;;;23.27;40.11;100571.91;5073448;27;47036;-76
2023/04/28 02:55:45;;;;;;;;;0.00;0.00;;;;;23.25;39.78;100567.69;5058480;28;45805;-75
2023/04/28 02:58:11;;;;;;;;;0.00;0.00;;;;;23.26;39.97;100566.69;5079372;27;45365;-75
2023/04/28 03:00:36;;;;;;;;;0.25;0.00;;;;;23.26;40.27;100561.34;5077627;27;45504;-76
2023/04/28 03:03:02;;;;;;;;;0.00;0.00;;;;;23.25;39.95;100563.19;5078495;27;45411;-75
2023/04/28 03:05:27;;;;;;;;;0.00;0.00;;;;;23.25;40.16;100567.69;5078613;27;45392;-76
2023/04/28 03:07:52;;;;;;;;;0.00;0.00;;;;;23.26;39.89;100564.03;5079328;28;45748;-75
2023/04/28 03:10:18;;;;;;;;;0.00;0.00;;;;;23.25;40.11;100560.50;5079414;27;45445;-75
2023/04/28 03:12:46;;;;;;;;;0.00;0.00;;;;;23.24;40.01;100561.47;5080265;27;46239;-75
2023/04/28 03:15:11;;;;;;;;;0.00;0.00;;;;;23.27;39.99;100568.41;5075628;27;45442;-75
2023/04/28 03:17:40;;;;;;;;;0.00;0.00;;;;;23.25;40.20;100560.50;5062084;28;45533;-75
2023/04/28 03:20:07;;;;;;;;;0.00;0.00;;;;;23.26;40.18;100570.19;5077427;27;45449;-75
2023/04/28 03:22:32;;;;;;;;;0.00;0.00;;;;;23.24;39.74;100555.28;5057741;28;47239;-75
2023/04/28 03:24:57;;;;;;;;;0.00;0.00;;;;;23.24;40.18;100557.97;5071572;28;49339;-75
2023/04/28 03:27:23;;;;;;;;;0.00;0.00;;;;;23.25;39.95;100557.84;5069394;28;64024;-75
2023/04/28 03:29:48;;;;;;;;;0.00;0.00;;;;;23.24;39.88;100560.63;5077292;27;67949;-76
2023/04/28 03:32:13;;;;;;;;;0.00;0.00;;;;;23.26;39.94;100556.00;5076018;27;53887;-76
2023/04/28 03:34:39;;;;;;;;;0.50;0.00;;;;;23.26;40.21;100564.03;5071226;28;49825;-76
2023/04/28 03:37:04;;;;;;;;;0.00;0.00;;;;;23.25;40.04;100557.84;5072589;27;57341;-76
2023/04/28 03:39:30;;;;;;;;;0.00;0.00;;;;;23.26;39.97;100569.38;5076339;27;54794;-76
2023/04/28 03:41:55;;;;;;;;;0.00;0.00;;;;;23.25;40.26;100565.00;5080723;27;45996;-76
2023/04/28 03:44:22;;;;;;;;;0.00;0.00;;;;;23.27;39.88;100566.56;5074188;27;47748;-76
2023/04/28 03:46:47;;;;;;;;;0.00;0.00;;;;;23.27;40.02;100553.22;5079658;28;45448;-76
2023/04/28 03:49:13;;;;;;;;;0.00;0.00;;;;;23.26;39.90;100554.19;5071575;27;45304;-76
2023/04/28 03:51:38;;;;;;;;;0.00;0.00;;;;;23.26;39.96;100559.50;5070710;27;71773;-75
2023/04/28 03:54:04;;;;;;;;;0.00;0.00;;;;;23.27;40.26;100557.72;5077150;27;45229;-75
2023/04/28 03:56:29;;;;;;;;;0.00;0.00;;;;;23.27;40.02;100557.72;5072239;27;68308;-75
2023/04/28 03:58:54;;;;;;;;;0.00;0.00;;;;;23.24;40.04;100556.13;5074679;27;70586;-75
2023/04/28 04:01:20;;;;;;;;;0.00;0.00;;;;;23.26;39.94;100564.03;5076433;27;70489;-75
2023/04/28 04:03:45;;;;;;;;;0.00;0.00;;;;;23.25;40.28;100560.50;5055937;28;75372;-75
2023/04/28 04:06:11;;;;;;;;;0.00;0.00;;;;;23.26;40.20;100559.50;5060319;28;45556;-76
2023/04/28 04:08:36;;;;;;;;;0.00;0.00;;;;;23.25;40.13;100560.50;5075594;27;45626;-75
2023/04/28 04:11:02;;;;;;;;;0.00;0.00;;;;;23.26;40.35;100559.50;5075022;27;67833;-75
2023/04/28 04:13:27;;;;;;;;;0.00;0.00;;;;;23.26;40.42;100561.34;5076428;27;45568;-75
2023/04/28 04:15:52;;;;;;;;;0.00;0.00;;;;;23.26;40.31;100556.84;5059168;28;67584;-75
2023/04/28 04:18:18;;;;;;;;;0.00;0.00;;;;;23.24;40.17;100560.63;5070808;27;46073;-75
2023/04/28 04:20:43;;;;;;;;;0.00;0.00;;;;;23.25;39.86;100565.00;5078033;27;45492;-76
2023/04/28 04:23:08;;;;;;;;;0.00;0.00;;;;;23.25;40.16;100565.00;5077820;27;64326;-75
2023/04/28 04:25:34;;;;;;;;;0.25;0.00;;;;;23.26;40.28;100566.69;5074626;28;45558;-76
2023/04/28 04:28:00;;;;;;;;;0.00;0.00;;;;;23.27;40.32;100563.91;5060039;27;45497;-75
2023/04/28 04:30:25;;;;;;;;;0.00;0.00;;;;;23.24;39.94;100568.66;5077930;27;46130;-75
2023/04/28 04:32:50;;;;;;;;;0.00;0.00;;;;;23.21;40.30;100560.88;5078112;27;45383;-75
2023/04/28 04:35:16;;;;;;;;;0.00;0.00;;;;;23.24;39.94;100569.47;5075359;27;56624;-75
2023/04/28 04:37:41;;;;;;;;;0.00;0.00;;;;;23.26;40.39;100566.69;5078416;28;45381;-75
2023/04/28 04:40:07;;;;;;;;;0.00;0.00;;;;;23.25;39.98;100570.34;5077865;27;45514;-76
2023/04/28 04:42:33;;;;;;;;;0.00;0.00;;;;;23.22;39.75;100568.78;5077081;27;45475;-76
2023/04/28 04:44:58;;;;;;;;;0.00;0.00;;;;;23.24;40.01;100572.16;5073235;28;63545;-76
2023/04/28 04:47:23;;;;;;;;;0.00;0.00;;;;;23.25;40.05;100570.34;5078037;27;67733;-76
2023/04/28 04:49:49;;;;;;;;;0.00;0.00;;;;;23.24;39.98;100577.50;5070597;27;46021;-75
2023/04/28 04:52:14;;;;;;;;;0.00;0.00;;;;;23.25;40.31;100568.53;5051319;28;45965;-75
2023/04/28 04:54:40;;;;;;;;;0.25;0.00;;;;;23.25;40.01;100575.69;5055564;28;45422;-75
2023/04/28 04:57:05;;;;;;;;;0.00;0.00;;;;;23.24;40.03;100577.50;5077689;28;61235;-75
2023/04/28 04:59:31;;;;;;;;;0.25;0.00;;;;;23.22;40.07;100576.78;5078170;27;45989;-75
2023/04/28 05:01:56;;;;;;;;;0.00;0.00;;;;;23.24;40.42;100579.31;5077417;27;45429;-75
2023/04/28 05:04:22;;;;;;;;;0.25;0.00;;;;;23.24;40.18;100582.84;5072069;27;67974;-75
2023/04/28 05:06:47;;;;;;;;;0.00;0.00;;;;;23.22;40.17;100584.78;5078127;28;45907;-76
2023/04/28 05:09:12;;;;;;;;;0.00;0.00;;;;;23.21;39.76;100576.91;5079552;27;45532;-76
2023/04/28 05:11:38;;;;;;;;;0.00;0.00;;;;;23.23;39.83;100588.28;5076932;27;64104;-76
2023/04/28 05:14:03;;;;;;;;;0.00;0.00;;;;;23.24;40.32;100593.50;5076210;27;62409;-76
2023/04/28 05:16:28;;;;;;;;;0.00;0.00;;;;;23.23;40.10;100591.84;5077132;27;69951;-75
2023/04/28 05:18:54;;;;;;;;;0.00;0.00;;;;;23.24;40.17;100596.19;5068088;27;60392;-75
2023/04/28 05:21:19;;;;;;;;;0.00;0.00;;;;;23.24;40.31;100593.50;5077341;27;45420;-75
2023/04/28 05:23:44;;;;;;;;;0.00;0.00;;;;;23.25;39.92;100599.72;5075263;28;45657;-75
2023/04/28 05:26:10;;;;;;;;;0.00;0.00;;;;;23.25;40.23;100595.22;5077538;27;45451;-75
2023/04/28 05:28:35;;;;;;;;;0.00;0.00;;;;;23.24;40.35;100587.34;5048658;28;64395;-76
2023/04/28 05:31:01;;;;;;;;;0.00;0.00;;;;;23.24;40.12;100584.66;5076214;27;53539;-76
2023/04/28 05:33:26;;;;;;;;;0.00;0.00;;;;;23.24;40.20;100596.19;5076279;28;46048;-76
2023/04/28 05:35:51;;;;;;;;;0.00;0.00;;;;;23.24;40.39;100595.34;5071669;28;53558;-77
2023/04/28 05:38:17;;;;;;;;;0.00;0.00;;;;;23.23;39.87;100596.31;5075906;27;66520;-76
2023/04/28 05:40:42;;;;;;;;;0.25;0.00;;;;;23.24;40.21;100590.84;5079134;27;63348;-76
2023/04/28 05:43:07;;;;;;;;;0.00;0.00;;;;;23.25;39.82;100597.06;5052047;28;69737;-76
2023/04/28 05:45:33;;;;;;;;;0.00;0.00;;;;;23.24;40.29;100604.19;5054802;28;68178;-76
2023/04/28 05:47:59;;;;;;;;;0.00;0.00;;;;;23.24;40.11;100603.34;5072753;28;45323;-76
2023/04/28 05:50:24;;;;;;;;;0.00;0.00;;;;;23.23;40.04;100601.66;5055960;28;64581;-76
2023/04/28 05:52:49;;;;;;;;;0.75;0.00;;;;;23.24;40.46;100598.00;5056332;28;45506;-76
2023/04/28 05:55:15;;;;;;;;;0.00;0.00;;;;;23.25;40.26;100605.06;5080597;27;46645;-76
2023/04/28 05:57:41;;;;;;;;;0.00;0.00;;;;;23.24;40.00;100608.69;5073332;27;70561;-76
2023/04/28 06:00:06;;;;;;;;;0.00;0.00;;;;;23.21;39.95;100595.59;5081469;27;50192;-76
2023/04/28 06:02:32;;;;;;;;;0.00;0.00;;;;;23.22;39.99;100603.47;5082259;27;45165;-76
2023/04/28 06:04:57;;;;;;;;;0.00;0.00;;;;;23.22;39.82;100608.81;5072692;27;64152;-76
2023/04/28 06:07:22;;;;;;;;;0.00;0.00;;;;;23.21;39.98;100604.44;5077887;27;48650;-76
2023/04/28 06:09:48;;;;;;;;;0.00;0.00;;;;;23.23;40.43;100605.19;5080761;27;69630;-76
2023/04/28 06:12:14;;;;;;;;;0.00;0.00;;;;;23.23;40.03;100604.31;5081113;27;45475;-76
2023/04/28 06:14:39;;;;;;;;;0.00;0.00;;;;;23.25;40.11;100610.41;5060812;28;45723;-76
2023/04/28 06:17:05;;;;;;;;;0.00;0.00;;;;;23.21;40.44;100604.44;5077840;27;46092;-76
2023/04/28 06:19:30;;;;;;;;;0.00;0.00;;;;;23.25;40.35;100608.56;5076060;27;45486;-77
2023/04/28 06:21:55;;;;;;;;;0.00;0.00;;;;;23.26;40.19;100609.41;5053881;28;45470;-77
2023/04/28 06:24:21;;;;;;;;;0.00;0.00;;;;;23.26;40.21;100615.59;5074923;27;45478;-76
2023/04/28 06:26:46;;;;;;;;;0.25;0.00;;;;;23.24;40.23;100612.22;5077810;27;69607;-76
2023/04/28 06:29:11;;;;;;;;;0.00;0.00;;;;;23.27;40.38;100613.78;5076277;27;65566;-76
2023/04/28 06:31:37;;;;;;;;;0.00;0.00;;;;;23.29;40.13;100622.53;5082404;27;45410;-76
2023/04/28 06:34:02;;;;;;;;;0.00;0.00;;;;;23.31;40.27;100625.91;5061079;28;45446;-76
2023/04/28 06:36:28;;;;;;;;;0.00;0.00;;;;;23.29;39.88;100612.69;5071468;28;66277;-76
2023/04/28 06:38:53;;;;;;;;;0.00;0.00;;;;;23.31;40.31;100610.72;5071872;27;67297;-76
2023/04/28 06:41:21;;;;;;;;;0.00;0.00;;;;;23.34;40.56;100616.78;5082363;27;45387;-76
2023/04/28 06:43:46;;;;;;;;;0.00;0.00;;;;;23.34;40.06;100611.44;5085466;27;45535;-76
2023/04/28 06:46:12;;;;;;;;;0.00;0.00;;;;;23.35;40.25;100608.63;5079286;27;48658;-76
2023/04/28 06:48:37;;;;;;;;;0.00;0.00;;;;;23.36;40.24;100609.50;5063857;27;45537;-76
2023/04/28 06:51:03;;;;;;;;;0.00;0.00;;;;;23.38;40.19;100621.75;5082688;27;47138;-76
2023/04/28 06:53:29;;;;;;;;;0.00;0.00;;;;;23.37;40.17;100617.38;5072464;27;45351;-76
2023/04/28 06:55:55;;;;;;;;;0.00;0.00;;;;;23.41;40.02;100625.97;5071420;28;68617;-76
2023/04/28 06:58:20;;;;;;;;;0.00;0.00;;;;;23.41;40.11;100632.19;5077454;27;45464;-76
2023/04/28 07:00:46;;;;;;;;;0.00;0.00;;;;;23.45;39.96;100633.63;5083307;27;45868;-76
2023/04/28 07:03:11;;;;;;;;;0.00;0.00;;;;;23.45;40.07;100633.63;5080744;27;45648;-76
2023/04/28 07:05:36;;;;;;;;;0.00;0.00;;;;;23.47;39.91;100637.00;5076363;27;55218;-76
2023/04/28 07:08:02;;;;;;;;;0.00;0.00;;;;;23.48;40.00;100640.53;5077309;27;64732;-76
2023/04/28 07:10:28;;;;;;;;;0.00;0.00;;;;;23.49;40.13;100645.72;5061934;28;45313;-75
2023/04/28 07:12:53;;;;;;;;;0.00;0.00;;;;;23.49;40.18;100634.22;5079114;27;45439;-76
2023/04/28 07:15:18;;;;;;;;;0.00;0.00;;;;;23.51;40.50;100640.25;5075852;28;61075;-77
2023/04/28 07:17:44;;;;;;;;;0.00;0.00;;;;;23.52;40.01;100636.63;5078244;28;46068;-74
2023/04/28 07:20:10;;;;;;;;;0.00;0.00;;;;;23.54;40.08;100644.53;5080478;27;45884;-74
2023/04/28 07:22:35;;;;;;;;;2.00;0.25;;;;;23.52;41.18;100644.66;5078045;27;45417;-79
2023/04/28 07:25:01;;;;;;;;;0.00;0.00;;;;;23.54;41.45;100650.69;5074854;28;45472;-71
2023/04/28 07:27:26;;;;;;;;;0.75;0.25;;;;;23.56;42.12;100650.59;5074647;27;45464;-72
2023/04/28 07:29:51;;;;;;;;;0.00;0.00;;;;;23.54;42.50;100648.03;5070796;27;56917;-71
2023/04/28 07:32:17;;;;;;;;;0.75;0.25;;;;;23.50;42.81;100647.44;5073253;28;50956;-73
2023/04/28 07:34:42;;;;;;;;;0.50;0.00;;;;;23.51;43.25;100650.94;5069155;27;46208;-73
2023/04/28 07:37:08;;;;;;;;;0.25;0.25;;;;;23.50;43.65;100646.59;5076754;27;70498;-74
2023/04/28 07:39:34;;;;;;;;;3.25;1.50;;;;;23.53;43.52;100654.34;5079100;27;45419;-73
2023/04/28 07:42:01;;;;;;;;;2.50;2.50;;;;;23.48;43.55;100653.91;5084901;27;45319;-74
2023/04/28 07:44:27;;;;;;;;;2.00;1.50;;;;;23.51;43.79;100656.28;5054201;28;48048;-73
2023/04/28 07:46:52;;;;;;;;;5.00;4.00;;;;;23.49;43.94;100655.56;5079368;27;45629;-73
2023/04/28 07:49:17;;;;;;;;;1.25;1.25;;;;;23.46;44.25;100654.03;5079219;27;45377;-71
2023/04/28 07:51:43;;;;;;;;;3.00;1.75;;;;;23.47;44.01;100660.19;5077176;27;70727;-74
2023/04/28 07:54:08;;;;;;;;;1.75;1.75;;;;;23.45;44.61;100660.31;5056847;28;66060;-73
2023/04/28 07:56:33;;;;;;;;;3.25;1.25;;;;;23.47;44.44;100676.22;5062287;28;45213;-75
2023/04/28 07:58:59;;;;;;;;;2.00;1.25;;;;;23.43;44.25;100667.63;5078846;27;45680;-78
2023/04/28 08:01:24;;;;;;;;;1.25;1.00;;;;;23.45;44.24;100670.16;5062046;28;46838;-80
2023/04/28 08:03:50;;;;;;;;;1.00;1.00;;;;;23.43;44.48;100664.94;5076494;27;47798;-73
2023/04/28 08:06:15;;;;;;;;;2.00;1.25;;;;;23.43;44.42;100672.13;5079525;27;45437;-75
2023/04/28 08:08:41;;;;;;;;;1.75;1.00;;;;;23.41;44.55;100672.25;5075534;28;66749;-82
2023/04/28 08:11:07;;;;;;;;;0.50;0.25;;;;;23.44;44.37;100673.81;5078616;27;68271;-83
2023/04/28 08:13:32;;;;;;;;;2.00;1.75;;;;;23.44;44.66;100666.66;5060905;28;48145;-77
2023/04/28 08:16:01;;;;;;;;;1.25;1.25;;;;;23.42;44.62;100662.41;5053597;28;45362;-78
2023/04/28 08:18:27;;;;;;;;;2.25;1.25;;;;;23.43;44.82;100672.97;5080686;27;45413;-78
2023/04/28 08:20:53;;;;;;;;;0.00;0.00;;;;;23.40;44.93;100667.88;5080551;27;45445;-74
2023/04/28 08:23:19;;;;;;;;;0.25;0.25;;;;;23.41;44.88;100676.72;5076513;27;45426;-76
2023/04/28 08:25:44;;;;;;;;;1.25;0.25;;;;;23.39;44.51;100681.34;5058584;28;45260;-75
2023/04/28 08:28:10;;;;;;;;;1.00;1.00;;;;;23.41;44.87;100679.38;5061749;28;45970;-76
2023/04/28 08:30:37;;;;;;;;;3.50;0.25;;;;;23.40;44.93;100678.53;5074505;27;57366;-71
2023/04/28 08:33:02;;;;;;;;;1.75;1.00;;;;;23.39;45.34;100678.66;5062359;28;48426;-72
2023/04/28 08:35:28;;;;;;;;;1.25;0.25;;;;;23.40;45.11;100675.03;5051921;28;45633;-71
2023/04/28 08:37:54;;;;;;;;;0.25;0.25;;;;;23.39;44.85;100671.53;5077825;28;45389;-69
2023/04/28 08:40:19;;;;;;;;;0.00;0.00;;;;;23.41;45.08;100688.28;5080025;27;45499;-72
2023/04/28 08:42:46;;;;;;;;;1.00;1.00;;;;;23.42;44.87;100673.09;5076914;28;46135;-73
2023/04/28 08:45:14;;;;;;;;;0.75;0.75;;;;;23.45;45.41;100675.50;5057689;28;46058;-70
2023/04/28 08:47:44;;;;;;;;;1.00;1.00;;;;;23.44;45.16;100668.47;5057985;28;45366;-71
2023/04/28 08:50:11;;;;;;;;;0.25;0.25;;;;;23.46;45.15;100682.53;5076241;27;45571;-71
2023/04/28 08:52:37;;;;;;;;;1.00;0.25;;;;;23.44;45.43;100681.81;5075198;27;46252;-71
2023/04/28 08:55:08;;;;;;;;;1.25;0.00;;;;;23.44;45.27;100685.34;5064453;28;45216;-71
2023/04/28 08:57:37;;;;;;;;;1.00;1.00;;;;;23.46;45.19;100687.88;5093631;27;45413;-70
2023/04/28 09:00:03;;;;;;;;;3.25;0.25;;;;;23.44;45.12;100684.50;5082628;27;45501;-71
2023/04/28 09:02:29;;;;;;;;;0.50;0.25;;;;;23.45;44.97;100692.38;5073157;27;45936;-72
2023/04/28 09:04:54;;;;;;;;;1.25;1.00;;;;;23.44;45.24;100696.03;5075874;27;45231;-72
2023/04/28 09:07:20;;;;;;;;;0.25;0.25;;;;;23.47;44.96;100698.44;5077200;28;64020;-73
2023/04/28 09:09:45;;;;;;;;;0.50;0.25;;;;;23.46;45.25;100688.75;5074989;27;45377;-73
2023/04/28 09:12:10;;;;;;;;;1.25;0.25;;;;;23.47;45.03;100695.75;5077936;28;74737;-73
2023/04/28 09:14:37;;;;;;;;;2.25;0.50;;;;;23.50;45.02;100700.88;5073632;27;53477;-76
2023/04/28 09:17:10;;;;;;;;;2.25;0.50;;;;;23.48;45.08;100694.81;5074527;28;45401;-68
2023/04/28 09:19:36;;;;;;;;;2.00;1.00;;;;;23.50;45.10;100694.69;5076365;27;45479;-69
2023/04/28 09:22:02;;;;;;;;;1.75;0.25;;;;;23.48;45.04;100697.47;5077542;27;46699;-72
2023/04/28 09:24:30;;;;;;;;;0.25;0.00;;;;;23.49;45.14;100700.97;5079269;27;45642;-70
2023/04/28 09:26:55;;;;;;;;;1.25;0.25;;;;;23.47;44.90;100697.59;5052624;28;45611;-70
2023/04/28 09:29:21;;;;;;;;;2.50;0.25;;;;;23.49;44.98;100703.66;5063851;27;45585;-70
2023/04/28 09:31:47;;;;;;;;;0.75;0.25;;;;;23.48;44.78;100704.66;5069575;27;47023;-71
2023/04/28 09:34:12;;;;;;;;;1.50;0.25;;;;;23.49;44.55;100701.81;5084446;27;72999;-68
2023/04/28 09:36:37;;;;;;;;;1.25;0.75;;;;;23.48;44.86;100704.66;5077415;27;45381;-69
2023/04/28 09:39:03;;;;;;;;;1.00;0.25;;;;;23.47;44.79;100701.09;5075080;27;55708;-69
2023/04/28 09:41:44;;;;;;;;;3.00;0.00;;;;;23.44;45.08;100692.50;5077222;27;55826;-70
2023/04/28 09:44:17;;;;;;;;;3.00;2.25;;;;;23.49;44.95;100698.31;5057154;28;45700;-70
2023/04/28 09:46:44;;;;;;;;;1.00;1.00;;;;;23.49;44.77;100696.47;5073183;27;45501;-71
2023/04/28 09:49:10;;;;;;;;;0.25;0.25;;;;;23.48;44.82;100699.31;5073587;27;45589;-76
2023/04/28 09:51:35;;;;;;;;;1.50;1.00;;;;;23.49;44.87;100699.16;5076471;28;45520;-71
2023/04/28 09:54:02;;;;;;;;;0.50;0.00;;;;;23.52;44.72;100697.22;5057219;28;45531;-74
2023/04/28 09:56:29;;;;;;;;;3.00;1.00;;;;;23.54;44.83;100700.63;5080253;27;45492;-74
2023/04/28 09:58:57;;;;;;;;;0.00;0.00;;;;;23.57;44.66;100703.00;5087333;27;45409;-73
2023/04/28 10:01:24;;;;;;;;;0.00;0.00;;;;;23.56;44.77;100701.34;5086047;27;45739;-73
2023/04/28 10:03:49;;;;;;;;;0.75;0.00;;;;;23.58;45.00;100702.88;5087310;27;45709;-71
2023/04/28 10:06:14;;;;;;;;;0.75;0.00;;;;;23.62;44.87;100714.16;5076733;27;45471;-71
2023/04/28 10:08:40;;;;;;;;;0.00;0.00;;;;;23.61;44.87;100702.66;5080417;27;45472;-73
2023/04/28 10:11:05;;;;;;;;;1.25;0.25;;;;;23.65;44.90;100705.91;5064811;28;47892;-74
2023/04/28 10:13:31;;;;;;;;;0.00;0.00;;;;;23.63;44.76;100702.53;5063443;28;45426;-75
2023/04/28 10:15:57;;;;;;;;;0.25;0.00;;;;;23.68;44.42;100714.53;5062235;28;45292;-76
2023/04/28 10:18:23;;;;;;;;;0.00;0.00;;;;;23.73;44.45;100713.28;5057536;28;45429;-74
2023/04/28 10:20:53;;;;;;;;;1.25;0.00;;;;;23.74;44.57;100704.31;5060172;28;47991;-75
2023/04/28 10:23:51;;;;;;;;;1.50;0.00;;;;;23.79;44.70;100704.78;5074772;27;45460;-76
2023/04/28 10:26:18;;;;;;;;;0.50;0.00;;;;;23.83;44.57;100707.09;5075933;28;45323;-70
2023/04/28 10:28:48;;;;;;;;;0.00;0.00;;;;;23.85;44.43;100705.16;5077639;27;46062;-70
2023/04/28 10:31:16;;;;;;;;;0.00;0.00;;;;;23.85;44.71;100713.16;5071066;28;47093;-73
2023/04/28 10:33:42;;;;;;;;;0.25;0.25;;;;;23.83;44.46;100704.44;5078828;27;45493;-71
2023/04/28 10:36:08;;;;;;;;;2.00;0.00;;;;;23.83;44.59;100716.94;5073527;27;45390;-71
2023/04/28 10:38:34;;;;;;;;;0.25;0.00;;;;;23.81;44.66;100726.91;5077910;27;45572;-69
2023/04/28 10:41:03;;;;;;;;;0.25;0.25;;;;;23.79;44.45;100721.66;5076876;27;45735;-70
2023/04/28 10:43:29;;;;;;;;;4.00;0.00;;;;;23.80;44.96;100722.50;5079352;27;45773;-70
2023/04/28 10:46:01;;;;;;;;;0.00;0.00;;;;;23.76;44.67;100721.06;5080986;27;45642;-70
2023/04/28 10:48:29;;;;;;;;;0.25;0.25;;;;;23.76;45.04;100724.59;5085017;27;45218;-73
2023/04/28 10:53:42;;;;;;;;;0.00;0.00;;;;;23.74;45.33;100731.88;5082374;27;45398;-72
2023/04/28 10:56:07;;;;;;;;;0.25;0.25;;;;;23.74;45.58;100725.69;5080773;27;45431;-72
2023/04/28 10:58:35;;;;;;;;;1.00;1.00;;;;;23.71;45.38;100721.44;5061659;27;45785;-71
2023/04/28 11:01:18;;;;;;;;;0.00;0.00;;;;;23.74;45.65;100717.66;5075904;27;45438;-70
2023/04/28 11:03:50;;;;;;;;;0.00;0.00;;;;;23.75;46.06;100716.69;5070649;27;45378;-70
2023/04/28 11:06:39;;;;;;;;;1.00;1.00;;;;;23.74;45.77;100715.84;5083046;27;45451;-69
2023/04/28 11:09:13;;;;;;;;;2.00;0.00;;;;;23.75;46.47;100708.69;5079570;27;45579;-71
2023/04/28 11:11:59;;;;;;;;;2.00;1.00;;;;;23.76;46.30;100707.69;5081004;27;45572;-70
2023/04/28 11:14:24;;;;;;;;;3.00;1.50;;;;;23.76;46.42;100707.69;5069478;27;45358;-71
2023/04/28 11:17:01;;;;;;;;;3.50;2.00;;;;;23.75;46.44;100706.84;5080877;28;45322;-70
2023/04/28 11:19:35;;;;;;;;;0.75;0.75;;;;;23.76;46.75;100707.69;5074625;27;45380;-70
2023/04/28 11:22:10;;;;;;;;;2.00;1.00;;;;;23.79;46.94;100702.94;5079543;27;45336;-70